sensor_id;sensor_type;location;lat;lon;timestamp;pressure;altitude;pressure_sealevel;temperature;humidity
22647;BME280;11490;42.726;23.268;2023-12-20T00:01:35;95613.16;;;-0.72;100.00
22647;BME280;11490;42.726;23.268;2023-12-20T00:04:00;95611.88;;;-0.60;100.00
22647;BME280;11490;42.726;23.268;2023-12-20T00:06:26;95612.59;;;-0.42;100.00
22647;BME280;11490;42.726;23.268;2023-12-20T00:08:51;95613.56;;;-0.34;100.00
22647;BME280;11490;42.726;23.268;2023-12-20T00:11:17;95607.50;;;-0.43;100.00
22647;BME280;11490;42.726;23.268;2023-12-20T00:13:42;95598.78;;;-0.52;100.00
22647;BME280;11490;42.726;23.268;2023-12-20T00:16:09;95608.66;;;-0.29;100.00
22647;BME280;11490;42.726;23.268;2023-12-20T00:18:35;95602.06;;;-0.50;100.00
22647;BME280;11490;42.726;23.268;2023-12-20T00:21:00;95581.13;;;-1.00;100.00
22647;BME280;11490;42.726;23.268;2023-12-20T00:23:25;95595.47;;;-0.70;100.00
22647;BME280;11490;42.726;23.268;2023-12-20T00:25:51;95587.91;;;-0.81;100.00
22647;BME280;11490;42.726;23.268;2023-12-20T00:28:16;95569.91;;;-0.76;100.00
22647;BME280;11490;42.726;23.268;2023-12-20T00:30:41;95558.25;;;-0.90;100.00
22647;BME280;11490;42.726;23.268;2023-12-20T00:33:07;95564.00;;;-0.86;100.00
22647;BME280;11490;42.726;23.268;2023-12-20T00:35:32;95568.97;;;-0.67;100.00
22647;BME280;11490;42.726;23.268;2023-12-20T00:37:58;95567.84;;;-0.56;100.00
22647;BME280;11490;42.726;23.268;2023-12-20T00:40:24;95573.41;;;-0.51;100.00
22647;BME280;11490;42.726;23.268;2023-12-20T00:42:49;95583.09;;;-0.35;100.00
22647;BME280;11490;42.726;23.268;2023-12-20T00:45:15;95557.56;;;-1.00;100.00
22647;BME280;11490;42.726;23.268;2023-12-20T00:47:40;95562.06;;;-0.76;100.00
22647;BME280;11490;42.726;23.268;2023-12-20T00:50:06;95564.81;;;-0.86;100.00
22647;BME280;11490;42.726;23.268;2023-12-20T00:52:32;95569.53;;;-0.97;100.00
22647;BME280;11490;42.726;23.268;2023-12-20T00:54:57;95546.66;;;-0.87;100.00
22647;BME280;11490;42.726;23.268;2023-12-20T00:57:23;95554.47;;;-0.95;100.00
22647;BME280;11490;42.726;23.268;2023-12-20T00:59:48;95560.44;;;-0.69;100.00
22647;BME280;11490;42.726;23.268;2023-12-20T01:02:14;95547.69;;;-0.64;100.00
22647;BME280;11490;42.726;23.268;2023-12-20T01:04:39;95542.66;;;-0.49;100.00
22647;BME280;11490;42.726;23.268;2023-12-20T01:07:05;95556.66;;;-0.74;100.00
22647;BME280;11490;42.726;23.268;2023-12-20T01:09:30;95538.19;;;-0.73;100.00
22647;BME280;11490;42.726;23.268;2023-12-20T01:11:55;95536.25;;;-0.55;100.00
22647;BME280;11490;42.726;23.268;2023-12-20T01:14:21;95545.75;;;-0.46;100.00
22647;BME280;11490;42.726;23.268;2023-12-20T01:16:46;95524.09;;;-0.72;100.00
22647;BME280;11490;42.726;23.268;2023-12-20T01:19:12;95528.03;;;-0.68;100.00
22647;BME280;11490;42.726;23.268;2023-12-20T01:21:39;95537.25;;;-0.56;100.00
22647;BME280;11490;42.726;23.268;2023-12-20T01:24:04;95526.72;;;-0.80;100.00
22647;BME280;11490;42.726;23.268;2023-12-20T01:26:30;95528.94;;;-1.01;100.00
22647;BME280;11490;42.726;23.268;2023-12-20T01:28:55;95515.06;;;-0.94;100.00
22647;BME280;11490;42.726;23.268;2023-12-20T01:31:21;95517.19;;;-0.89;100.00
22647;BME280;11490;42.726;23.268;2023-12-20T01:33:46;95512.81;;;-0.72;100.00
22647;BME280;11490;42.726;23.268;2023-12-20T01:36:11;95504.38;;;-1.00;100.00
22647;BME280;11490;42.726;23.268;2023-12-20T01:38:37;95504.44;;;-0.84;100.00
22647;BME280;11490;42.726;23.268;2023-12-20T01:41:03;95501.22;;;-0.70;100.00
22647;BME280;11490;42.726;23.268;2023-12-20T01:43:29;95494.66;;;-0.66;100.00
22647;BME280;11490;42.726;23.268;2023-12-20T01:45:56;95500.22;;;-0.61;100.00
22647;BME280;11490;42.726;23.268;2023-12-20T01:48:23;95493.69;;;-0.57;100.00
22647;BME280;11490;42.726;23.268;2023-12-20T01:50:49;95495.81;;;-0.44;100.00
22647;BME280;11490;42.726;23.268;2023-12-20T01:53:15;95492.72;;;-0.48;100.00
22647;BME280;11490;42.726;23.268;2023-12-20T01:55:41;95484.34;;;-0.67;100.00
22647;BME280;11490;42.726;23.268;2023-12-20T01:58:08;95490.72;;;-0.38;100.00
22647;BME280;11490;42.726;23.268;2023-12-20T02:00:36;95475.84;;;-0.45;100.00
22647;BME280;11490;42.726;23.268;2023-12-20T02:03:02;95481.59;;;-0.33;100.00
22647;BME280;11490;42.726;23.268;2023-12-20T02:05:29;95473.56;;;-0.40;100.00
22647;BME280;11490;42.726;23.268;2023-12-20T02:07:55;95475.69;;;-0.44;100.00
22647;BME280;11490;42.726;23.268;2023-12-20T02:10:20;95467.66;;;-0.26;100.00
22647;BME280;11490;42.726;23.268;2023-12-20T02:12:46;95445.22;;;-0.36;100.00
22647;BME280;11490;42.726;23.268;2023-12-20T02:15:11;95469.78;;;-0.46;100.00
22647;BME280;11490;42.726;23.268;2023-12-20T02:17:38;95460.94;;;-0.28;100.00
22647;BME280;11490;42.726;23.268;2023-12-20T02:20:04;95461.59;;;-0.34;100.00
22647;BME280;11490;42.726;23.268;2023-12-20T02:22:31;95456.66;;;-0.54;100.00
22647;BME280;11490;42.726;23.268;2023-12-20T02:24:56;95448.50;;;-0.51;100.00
22647;BME280;11490;42.726;23.268;2023-12-20T02:27:22;95450.13;;;-0.42;100.00
22647;BME280;11490;42.726;23.268;2023-12-20T02:29:48;95451.78;;;-0.41;100.00
22647;BME280;11490;42.726;23.268;2023-12-20T02:32:15;95444.53;;;-0.30;100.00
22647;BME280;11490;42.726;23.268;2023-12-20T02:34:41;95439.63;;;-0.09;100.00
22647;BME280;11490;42.726;23.268;2023-12-20T02:37:06;95430.44;;;-0.13;100.00
22647;BME280;11490;42.726;23.268;2023-12-20T02:39:31;95436.66;;;0.02;100.00
22647;BME280;11490;42.726;23.268;2023-12-20T02:41:58;95436.63;;;0.10;100.00
22647;BME280;11490;42.726;23.268;2023-12-20T02:44:23;95429.63;;;-0.14;100.00
22647;BME280;11490;42.726;23.268;2023-12-20T02:46:49;95418.00;;;-0.11;100.00
22647;BME280;11490;42.726;23.268;2023-12-20T02:49:15;95433.75;;;-0.19;100.00
22647;BME280;11490;42.726;23.268;2023-12-20T02:51:40;95426.50;;;0.07;100.00
22647;BME280;11490;42.726;23.268;2023-12-20T02:54:06;95420.59;;;-0.03;100.00
22647;BME280;11490;42.726;23.268;2023-12-20T02:56:33;95423.22;;;0.05;100.00
22647;BME280;11490;42.726;23.268;2023-12-20T02:58:58;95426.63;;;0.14;100.00
22647;BME280;11490;42.726;23.268;2023-12-20T03:01:23;95423.19;;;0.13;100.00
22647;BME280;11490;42.726;23.268;2023-12-20T03:03:49;95424.84;;;0.14;100.00
22647;BME280;11490;42.726;23.268;2023-12-20T03:06:18;95429.13;;;-0.01;100.00
22647;BME280;11490;42.726;23.268;2023-12-20T03:08:44;95429.41;;;0.12;100.00
22647;BME280;11490;42.726;23.268;2023-12-20T03:11:10;95425.81;;;0.13;100.00
22647;BME280;11490;42.726;23.268;2023-12-20T03:13:35;95425.81;;;0.13;100.00
22647;BME280;11490;42.726;23.268;2023-12-20T03:16:01;95415.66;;;0.10;100.00
22647;BME280;11490;42.726;23.268;2023-12-20T03:18:26;95420.44;;;0.07;100.00
22647;BME280;11490;42.726;23.268;2023-12-20T03:20:53;95414.00;;;0.09;100.00
22647;BME280;11490;42.726;23.268;2023-12-20T03:23:19;95407.22;;;-0.16;100.00
22647;BME280;11490;42.726;23.268;2023-12-20T03:25:44;95430.47;;;-0.29;100.00
22647;BME280;11490;42.726;23.268;2023-12-20T03:28:09;95400.97;;;-0.15;100.00
22647;BME280;11490;42.726;23.268;2023-12-20T03:30:35;95407.84;;;-0.14;100.00
22647;BME280;11490;42.726;23.268;2023-12-20T03:33:00;95407.34;;;-0.02;100.00
22647;BME280;11490;42.726;23.268;2023-12-20T03:35:25;95406.16;;;0.01;100.00
22647;BME280;11490;42.726;23.268;2023-12-20T03:37:51;95407.81;;;0.02;100.00
22647;BME280;11490;42.726;23.268;2023-12-20T03:40:17;95418.78;;;0.06;100.00
22647;BME280;11490;42.726;23.268;2023-12-20T03:42:42;95413.41;;;-0.01;100.00
22647;BME280;11490;42.726;23.268;2023-12-20T03:45:08;95399.97;;;-0.06;100.00
22647;BME280;11490;42.726;23.268;2023-12-20T03:47:33;95385.91;;;-0.21;100.00
22647;BME280;11490;42.726;23.268;2023-12-20T03:49:59;95388.03;;;-0.17;100.00
22647;BME280;11490;42.726;23.268;2023-12-20T03:52:24;95405.88;;;-0.12;100.00
22647;BME280;11490;42.726;23.268;2023-12-20T03:54:49;95403.41;;;-0.14;100.00
22647;BME280;11490;42.726;23.268;2023-12-20T03:57:15;95405.44;;;-0.32;100.00
22647;BME280;11490;42.726;23.268;2023-12-20T03:59:40;95389.19;;;-0.27;100.00
22647;BME280;11490;42.726;23.268;2023-12-20T04:02:06;95394.13;;;-0.41;100.00
22647;BME280;11490;42.726;23.268;2023-12-20T04:04:31;95393.78;;;-0.46;100.00
22647;BME280;11490;42.726;23.268;2023-12-20T04:06:56;95379.84;;;-0.22;100.00
22647;BME280;11490;42.726;23.268;2023-12-20T04:09:22;95377.75;;;-0.43;100.00
22647;BME280;11490;42.726;23.268;2023-12-20T04:11:47;95375.44;;;-0.29;100.00
22647;BME280;11490;42.726;23.268;2023-12-20T04:14:13;95385.91;;;-0.21;100.00
22647;BME280;11490;42.726;23.268;2023-12-20T04:16:38;95372.97;;;-0.23;100.00
22647;BME280;11490;42.726;23.268;2023-12-20T04:19:04;95377.69;;;-0.10;100.00
22647;BME280;11490;42.726;23.268;2023-12-20T04:21:30;95365.06;;;-0.15;100.00
22647;BME280;11490;42.726;23.268;2023-12-20T04:23:55;95364.63;;;-0.26;100.00
22647;BME280;11490;42.726;23.268;2023-12-20T04:26:21;95362.66;;;-0.24;100.00
22647;BME280;11490;42.726;23.268;2023-12-20T04:28:46;95357.09;;;-0.29;100.00
22647;BME280;11490;42.726;23.268;2023-12-20T04:31:11;95364.97;;;-0.38;100.00
22647;BME280;11490;42.726;23.268;2023-12-20T04:33:37;95361.34;;;-0.28;100.00
22647;BME280;11490;42.726;23.268;2023-12-20T04:36:02;95366.56;;;-0.20;100.00
22647;BME280;11490;42.726;23.268;2023-12-20T04:38:28;95361.34;;;-0.20;100.00
22647;BME280;11490;42.726;23.268;2023-12-20T04:40:53;95352.19;;;-0.24;100.00
22647;BME280;11490;42.726;23.268;2023-12-20T04:43:19;95371.13;;;-0.14;100.00
22647;BME280;11490;42.726;23.268;2023-12-20T04:45:44;95354.00;;;-0.25;100.00
22647;BME280;11490;42.726;23.268;2023-12-20T04:48:09;95368.28;;;-0.52;100.00
22647;BME280;11490;42.726;23.268;2023-12-20T04:50:35;95370.06;;;-0.60;100.00
22647;BME280;11490;42.726;23.268;2023-12-20T04:53:00;95349.63;;;-0.57;100.00
22647;BME280;11490;42.726;23.268;2023-12-20T04:55:26;95354.19;;;-0.51;100.00
22647;BME280;11490;42.726;23.268;2023-12-20T04:57:51;95354.19;;;-0.51;100.00
22647;BME280;11490;42.726;23.268;2023-12-20T05:00:17;95371.53;;;-0.42;100.00
22647;BME280;11490;42.726;23.268;2023-12-20T05:02:42;95355.16;;;-0.44;100.00
22647;BME280;11490;42.726;23.268;2023-12-20T05:05:08;95350.44;;;-0.56;100.00
22647;BME280;11490;42.726;23.268;2023-12-20T05:07:33;95357.13;;;-0.54;100.00
22647;BME280;11490;42.726;23.268;2023-12-20T05:09:59;95353.03;;;-0.40;100.00
22647;BME280;11490;42.726;23.268;2023-12-20T05:12:24;95335.53;;;-0.40;100.00
22647;BME280;11490;42.726;23.268;2023-12-20T05:14:51;95337.19;;;-0.47;100.00
22647;BME280;11490;42.726;23.268;2023-12-20T05:17:17;95347.00;;;-0.49;100.00
22647;BME280;11490;42.726;23.268;2023-12-20T05:19:42;95348.28;;;-0.45;100.00
22647;BME280;11490;42.726;23.268;2023-12-20T05:22:08;95339.13;;;-0.41;100.00
22647;BME280;11490;42.726;23.268;2023-12-20T05:24:34;95325.69;;;-0.46;100.00
22647;BME280;11490;42.726;23.268;2023-12-20T05:26:59;95335.19;;;-0.45;100.00
22647;BME280;11490;42.726;23.268;2023-12-20T05:29:25;95323.72;;;-0.44;100.00
22647;BME280;11490;42.726;23.268;2023-12-20T05:31:50;95334.88;;;-0.50;100.00
22647;BME280;11490;42.726;23.268;2023-12-20T05:34:15;95324.72;;;-0.53;100.00
22647;BME280;11490;42.726;23.268;2023-12-20T05:36:41;95328.31;;;-0.54;100.00
22647;BME280;11490;42.726;23.268;2023-12-20T05:39:06;95322.44;;;-0.48;100.00
22647;BME280;11490;42.726;23.268;2023-12-20T05:41:33;95323.75;;;-0.60;100.00
22647;BME280;11490;42.726;23.268;2023-12-20T05:43:58;95315.94;;;-1.17;100.00
22647;BME280;11490;42.726;23.268;2023-12-20T05:46:56;95326.09;;;-0.97;100.00
22647;BME280;11490;42.726;23.268;2023-12-20T05:49:43;95325.41;;;-0.75;100.00
22647;BME280;11490;42.726;23.268;2023-12-20T06:17:45;95314.22;;;-0.36;100.00
22647;BME280;11490;42.726;23.268;2023-12-20T06:20:12;95304.09;;;-0.40;100.00
22647;BME280;11490;42.726;23.268;2023-12-20T06:22:38;95307.69;;;-0.49;100.00
22647;BME280;11490;42.726;23.268;2023-12-20T06:25:04;95308.00;;;-0.44;100.00
22647;BME280;11490;42.726;23.268;2023-12-20T06:27:30;95312.72;;;-0.31;100.00
22647;BME280;11490;42.726;23.268;2023-12-20T06:29:57;95322.16;;;-0.93;100.00
22647;BME280;11490;42.726;23.268;2023-12-20T06:32:23;95301.84;;;-0.75;100.00
22647;BME280;11490;42.726;23.268;2023-12-20T06:34:49;95307.38;;;-0.54;100.00
22647;BME280;11490;42.726;23.268;2023-12-20T06:37:16;95289.75;;;-1.00;100.00
22647;BME280;11490;42.726;23.268;2023-12-20T06:39:44;95257.03;;;-0.88;100.00
22647;BME280;11490;42.726;23.268;2023-12-20T06:42:10;95304.75;;;-0.62;100.00
22647;BME280;11490;42.726;23.268;2023-12-20T06:44:35;95268.16;;;-0.78;100.00
22647;BME280;11490;42.726;23.268;2023-12-20T06:47:02;95240.34;;;-0.79;100.00
22647;BME280;11490;42.726;23.268;2023-12-20T06:49:27;95290.75;;;-0.30;100.00
22647;BME280;11490;42.726;23.268;2023-12-20T06:51:53;95285.03;;;-0.25;100.00
22647;BME280;11490;42.726;23.268;2023-12-20T06:54:18;95252.97;;;-0.35;100.00
22647;BME280;11490;42.726;23.268;2023-12-20T07:20:34;95242.94;;;0.07;100.00
22647;BME280;11490;42.726;23.268;2023-12-20T07:47:13;95161.16;;;-0.89;100.00
22647;BME280;11490;42.726;23.268;2023-12-20T07:49:42;95224.28;;;-0.76;100.00
22647;BME280;11490;42.726;23.268;2023-12-20T07:52:59;95262.00;;;-0.07;100.00
22647;BME280;11490;42.726;23.268;2023-12-20T07:55:42;95180.97;;;-0.48;100.00
22647;BME280;11490;42.726;23.268;2023-12-20T08:01:11;95200.44;;;-0.11;100.00
22647;BME280;11490;42.726;23.268;2023-12-20T08:03:37;95239.22;;;0.24;100.00
22647;BME280;11490;42.726;23.268;2023-12-20T08:06:05;95233.66;;;0.27;100.00
22647;BME280;11490;42.726;23.268;2023-12-20T08:08:33;95204.94;;;0.03;100.00
22647;BME280;11490;42.726;23.268;2023-12-20T08:10:59;95236.66;;;0.39;100.00
22647;BME280;11490;42.726;23.268;2023-12-20T08:13:25;95219.88;;;0.25;100.00
22647;BME280;11490;42.726;23.268;2023-12-20T08:15:59;95209.72;;;-0.01;100.00
22647;BME280;11490;42.726;23.268;2023-12-20T08:21:16;95231.91;;;0.43;100.00
22647;BME280;11490;42.726;23.268;2023-12-20T08:23:44;95209.66;;;0.38;100.00
22647;BME280;11490;42.726;23.268;2023-12-20T08:26:10;95213.25;;;0.37;100.00
22647;BME280;11490;42.726;23.268;2023-12-20T08:28:42;95238.03;;;0.58;100.00
22647;BME280;11490;42.726;23.268;2023-12-20T08:31:13;95228.22;;;0.52;100.00
22647;BME280;11490;42.726;23.268;2023-12-20T08:33:39;95225.59;;;0.52;100.00
22647;BME280;11490;42.726;23.268;2023-12-20T08:36:04;95218.94;;;0.64;100.00
22647;BME280;11490;42.726;23.268;2023-12-20T08:38:30;95218.91;;;0.87;100.00
22647;BME280;11490;42.726;23.268;2023-12-20T08:40:56;95212.44;;;0.60;100.00
22647;BME280;11490;42.726;23.268;2023-12-20T08:43:21;95201.44;;;0.79;100.00
22647;BME280;11490;42.726;23.268;2023-12-20T08:45:47;95201.44;;;0.79;100.00
22647;BME280;11490;42.726;23.268;2023-12-20T08:48:12;95198.28;;;0.84;100.00
22647;BME280;11490;42.726;23.268;2023-12-20T08:50:38;95187.31;;;0.80;100.00
22647;BME280;11490;42.726;23.268;2023-12-20T08:53:04;95189.22;;;0.86;100.00
22647;BME280;11490;42.726;23.268;2023-12-20T08:55:29;95202.13;;;0.73;100.00
22647;BME280;11490;42.726;23.268;2023-12-20T08:57:56;95188.94;;;0.81;100.00
22647;BME280;11490;42.726;23.268;2023-12-20T09:00:21;95176.97;;;0.78;100.00
22647;BME280;11490;42.726;23.268;2023-12-20T09:02:49;95186.53;;;0.57;100.00
22647;BME280;11490;42.726;23.268;2023-12-20T09:05:15;95155.16;;;0.63;100.00
22647;BME280;11490;42.726;23.268;2023-12-20T09:07:40;95142.13;;;0.70;100.00
22647;BME280;11490;42.726;23.268;2023-12-20T09:10:06;95151.56;;;0.42;100.00
22647;BME280;11490;42.726;23.268;2023-12-20T09:12:31;95149.00;;;0.33;100.00
22647;BME280;11490;42.726;23.268;2023-12-20T09:14:57;95126.19;;;0.19;100.00
22647;BME280;11490;42.726;23.268;2023-12-20T09:17:22;95125.47;;;0.03;100.00
22647;BME280;11490;42.726;23.268;2023-12-20T09:19:48;95144.34;;;0.44;100.00
22647;BME280;11490;42.726;23.268;2023-12-20T09:22:13;95130.31;;;0.36;100.00
22647;BME280;11490;42.726;23.268;2023-12-20T09:24:39;95115.69;;;0.19;100.00
22647;BME280;11490;42.726;23.268;2023-12-20T09:27:07;95102.38;;;0.44;100.00
22647;BME280;11490;42.726;23.268;2023-12-20T09:29:33;95110.94;;;0.75;100.00
22647;BME280;11490;42.726;23.268;2023-12-20T09:31:58;95107.66;;;0.88;100.00
22647;BME280;11490;42.726;23.268;2023-12-20T09:34:24;95088.28;;;1.03;100.00
22647;BME280;11490;42.726;23.268;2023-12-20T09:36:51;95090.09;;;1.17;100.00
22647;BME280;11490;42.726;23.268;2023-12-20T09:39:17;95088.81;;;1.28;100.00
22647;BME280;11490;42.726;23.268;2023-12-20T09:42:02;95083.19;;;1.46;100.00
22647;BME280;11490;42.726;23.268;2023-12-20T09:44:28;95080.44;;;1.54;100.00
22647;BME280;11490;42.726;23.268;2023-12-20T09:46:55;95076.19;;;1.53;100.00
22647;BME280;11490;42.726;23.268;2023-12-20T09:49:21;95063.56;;;1.48;100.00
22647;BME280;11490;42.726;23.268;2023-12-20T09:51:47;95058.78;;;1.52;100.00
22647;BME280;11490;42.726;23.268;2023-12-20T09:54:20;95066.53;;;1.39;100.00
22647;BME280;11490;42.726;23.268;2023-12-20T09:56:48;95059.09;;;1.28;100.00
22647;BME280;11490;42.726;23.268;2023-12-20T09:59:19;95059.53;;;1.46;100.00
22647;BME280;11490;42.726;23.268;2023-12-20T10:01:45;95056.75;;;1.69;100.00
22647;BME280;11490;42.726;23.268;2023-12-20T10:04:17;95033.72;;;1.35;100.00
22647;BME280;11490;42.726;23.268;2023-12-20T10:06:43;95038.88;;;1.64;100.00
22647;BME280;11490;42.726;23.268;2023-12-20T10:09:09;95000.06;;;1.24;100.00
22647;BME280;11490;42.726;23.268;2023-12-20T10:11:38;95020.88;;;1.61;100.00
22647;BME280;11490;42.726;23.268;2023-12-20T10:14:05;94998.84;;;1.62;100.00
22647;BME280;11490;42.726;23.268;2023-12-20T10:16:40;94949.41;;;1.51;100.00
22647;BME280;11490;42.726;23.268;2023-12-20T10:19:11;94987.16;;;2.14;100.00
22647;BME280;11490;42.726;23.268;2023-12-20T10:21:41;95001.50;;;2.39;100.00
22647;BME280;11490;42.726;23.268;2023-12-20T10:24:06;94963.56;;;2.61;100.00
22647;BME280;11490;42.726;23.268;2023-12-20T10:26:32;95001.84;;;3.05;100.00
22647;BME280;11490;42.726;23.268;2023-12-20T10:29:00;95017.03;;;3.57;100.00
22647;BME280;11490;42.726;23.268;2023-12-20T10:31:33;95002.72;;;3.99;100.00
22647;BME280;11490;42.726;23.268;2023-12-20T10:34:01;94941.59;;;3.89;100.00
22647;BME280;11490;42.726;23.268;2023-12-20T10:36:31;94965.53;;;4.34;100.00
22647;BME280;11490;42.726;23.268;2023-12-20T10:38:57;94968.75;;;4.69;100.00
22647;BME280;11490;42.726;23.268;2023-12-20T10:41:31;94973.97;;;4.95;100.00
22647;BME280;11490;42.726;23.268;2023-12-20T10:44:01;94959.63;;;5.16;98.88
22647;BME280;11490;42.726;23.268;2023-12-20T10:46:28;94956.03;;;4.97;99.13
22647;BME280;11490;42.726;23.268;2023-12-20T10:48:56;94976.44;;;5.28;98.84
22647;BME280;11490;42.726;23.268;2023-12-20T10:51:22;94924.88;;;4.61;99.98
22647;BME280;11490;42.726;23.268;2023-12-20T10:53:52;94936.16;;;4.81;99.69
22647;BME280;11490;42.726;23.268;2023-12-20T10:56:18;94915.16;;;4.55;100.00
22647;BME280;11490;42.726;23.268;2023-12-20T10:58:48;94955.31;;;4.70;100.00
22647;BME280;11490;42.726;23.268;2023-12-20T11:01:17;94925.56;;;4.04;100.00
22647;BME280;11490;42.726;23.268;2023-12-20T11:03:53;94911.56;;;3.97;100.00
22647;BME280;11490;42.726;23.268;2023-12-20T11:06:29;94945.63;;;4.38;100.00
22647;BME280;11490;42.726;23.268;2023-12-20T11:09:06;94939.13;;;4.53;100.00
22647;BME280;11490;42.726;23.268;2023-12-20T11:11:50;94851.53;;;3.85;100.00
22647;BME280;11490;42.726;23.268;2023-12-20T11:14:29;94921.94;;;3.98;100.00
22647;BME280;11490;42.726;23.268;2023-12-20T11:17:07;94899.41;;;3.82;100.00
22647;BME280;11490;42.726;23.268;2023-12-20T11:19:38;94848.72;;;3.54;100.00
22647;BME280;11490;42.726;23.268;2023-12-20T11:22:14;94860.84;;;3.29;100.00
22647;BME280;11490;42.726;23.268;2023-12-20T11:24:44;94855.16;;;3.12;100.00
22647;BME280;11490;42.726;23.268;2023-12-20T11:27:12;94887.81;;;3.24;100.00
22647;BME280;11490;42.726;23.268;2023-12-20T11:29:38;94864.50;;;3.34;100.00
22647;BME280;11490;42.726;23.268;2023-12-20T11:34:51;94867.56;;;3.58;100.00
22647;BME280;11490;42.726;23.268;2023-12-20T11:37:35;94832.44;;;3.11;100.00
22647;BME280;11490;42.726;23.268;2023-12-20T11:40:04;94816.66;;;3.24;100.00
22647;BME280;11490;42.726;23.268;2023-12-20T11:42:38;94829.66;;;3.45;100.00
22647;BME280;11490;42.726;23.268;2023-12-20T11:45:05;94824.16;;;3.54;100.00
22647;BME280;11490;42.726;23.268;2023-12-20T11:47:31;94832.69;;;3.69;100.00
22647;BME280;11490;42.726;23.268;2023-12-20T11:49:59;94851.53;;;3.72;100.00
22647;BME280;11490;42.726;23.268;2023-12-20T11:52:34;94835.34;;;3.56;100.00
22647;BME280;11490;42.726;23.268;2023-12-20T11:55:09;94736.41;;;2.94;100.00
22647;BME280;11490;42.726;23.268;2023-12-20T11:58:06;94767.22;;;3.33;100.00
22647;BME280;11490;42.726;23.268;2023-12-20T12:15:17;94754.22;;;3.05;100.00
22647;BME280;11490;42.726;23.268;2023-12-20T12:18:14;94796.38;;;3.12;100.00
22647;BME280;11490;42.726;23.268;2023-12-20T12:23:51;94703.97;;;2.80;100.00
22647;BME280;11490;42.726;23.268;2023-12-20T12:26:16;94716.53;;;2.85;100.00
22647;BME280;11490;42.726;23.268;2023-12-20T12:28:45;94751.41;;;3.06;100.00
22647;BME280;11490;42.726;23.268;2023-12-20T12:31:34;94729.50;;;3.06;100.00
22647;BME280;11490;42.726;23.268;2023-12-20T12:34:02;94678.84;;;2.51;100.00
22647;BME280;11490;42.726;23.268;2023-12-20T12:36:29;94740.44;;;2.90;100.00
22647;BME280;11490;42.726;23.268;2023-12-20T12:38:57;94719.75;;;2.87;100.00
22647;BME280;11490;42.726;23.268;2023-12-20T12:41:25;94754.84;;;3.07;100.00
22647;BME280;11490;42.726;23.268;2023-12-20T12:43:51;94755.44;;;3.02;100.00
22647;BME280;11490;42.726;23.268;2023-12-20T12:46:16;94769.22;;;2.98;100.00
22647;BME280;11490;42.726;23.268;2023-12-20T12:48:44;94770.03;;;3.05;100.00
22647;BME280;11490;42.726;23.268;2023-12-20T12:51:10;94738.44;;;2.92;100.00
22647;BME280;11490;42.726;23.268;2023-12-20T12:53:47;94739.22;;;2.99;100.00
22647;BME280;11490;42.726;23.268;2023-12-20T12:56:20;94755.03;;;2.99;100.00
22647;BME280;11490;42.726;23.268;2023-12-20T12:58:50;94697.06;;;2.59;100.00
22647;BME280;11490;42.726;23.268;2023-12-20T13:01:16;94708.19;;;2.48;100.00
22647;BME280;11490;42.726;23.268;2023-12-20T13:03:43;94708.97;;;2.22;100.00
22647;BME280;11490;42.726;23.268;2023-12-20T13:06:09;94736.72;;;2.38;100.00
22647;BME280;11490;42.726;23.268;2023-12-20T13:08:34;94743.03;;;2.63;100.00
22647;BME280;11490;42.726;23.268;2023-12-20T13:11:00;94745.66;;;2.63;100.00
22647;BME280;11490;42.726;23.268;2023-12-20T13:13:29;94733.50;;;2.49;100.00
22647;BME280;11490;42.726;23.268;2023-12-20T13:15:55;94716.84;;;2.22;100.00
22647;BME280;11490;42.726;23.268;2023-12-20T13:18:21;94726.41;;;2.43;100.00
22647;BME280;11490;42.726;23.268;2023-12-20T13:20:47;94714.78;;;2.11;100.00
22647;BME280;11490;42.726;23.268;2023-12-20T13:23:12;94704.25;;;2.11;100.00
22647;BME280;11490;42.726;23.268;2023-12-20T13:25:41;94736.28;;;2.28;100.00
22647;BME280;11490;42.726;23.268;2023-12-20T13:28:06;94738.53;;;2.31;100.00
22647;BME280;11490;42.726;23.268;2023-12-20T13:30:33;94753.69;;;2.29;100.00
22647;BME280;11490;42.726;23.268;2023-12-20T13:32:59;94730.56;;;2.18;100.00
22647;BME280;11490;42.726;23.268;2023-12-20T13:35:24;94720.09;;;2.24;100.00
22647;BME280;11490;42.726;23.268;2023-12-20T13:37:50;94717.97;;;1.93;100.00
22647;BME280;11490;42.726;23.268;2023-12-20T13:40:15;94724.06;;;2.01;100.00
22647;BME280;11490;42.726;23.268;2023-12-20T13:42:41;94722.47;;;2.13;100.00
22647;BME280;11490;42.726;23.268;2023-12-20T13:45:07;94668.94;;;1.79;100.00
22647;BME280;11490;42.726;23.268;2023-12-20T13:47:33;94687.19;;;1.87;100.00
22647;BME280;11490;42.726;23.268;2023-12-20T13:49:58;94712.75;;;2.07;100.00
22647;BME280;11490;42.726;23.268;2023-12-20T13:52:24;94718.22;;;2.12;100.00
22647;BME280;11490;42.726;23.268;2023-12-20T13:54:49;94720.84;;;2.05;100.00
22647;BME280;11490;42.726;23.268;2023-12-20T13:57:15;94742.00;;;1.84;100.00
22647;BME280;11490;42.726;23.268;2023-12-20T13:59:40;94723.03;;;2.02;100.00
22647;BME280;11490;42.726;23.268;2023-12-20T14:02:06;94729.63;;;1.78;100.00
22647;BME280;11490;42.726;23.268;2023-12-20T14:04:31;94729.25;;;1.87;100.00
22647;BME280;11490;42.726;23.268;2023-12-20T14:06:57;94736.13;;;1.88;100.00
22647;BME280;11490;42.726;23.268;2023-12-20T14:09:24;94717.06;;;1.73;100.00
22647;BME280;11490;42.726;23.268;2023-12-20T14:11:50;94681.03;;;1.61;100.00
22647;BME280;11490;42.726;23.268;2023-12-20T14:14:15;94733.75;;;1.93;100.00
22647;BME280;11490;42.726;23.268;2023-12-20T14:16:42;94689.56;;;1.69;100.00
22647;BME280;11490;42.726;23.268;2023-12-20T14:19:10;94683.84;;;1.59;100.00
22647;BME280;11490;42.726;23.268;2023-12-20T14:21:36;94719.97;;;1.91;100.00
22647;BME280;11490;42.726;23.268;2023-12-20T14:24:05;94697.28;;;1.77;100.00
22647;BME280;11490;42.726;23.268;2023-12-20T14:26:30;94733.34;;;1.97;100.00